Nur fliegen ist schöner ....

Willkommen beim Flugservice Bautzen GmbH

Wir sind eine nach europäischen Richtlinien zugelassene Flugschule und lizenziertes Luftfahrtunternehmen. Bei uns können sie nicht nur Rundflüge über die Oberlausitz oder Sachsen buchen, sondern in unserer Flugschule selber das Fliegen erlernen. Erfahrene Fluglehrer stehen Ihnen dabei zur Seite.

Wir bieten Ihnen außerdem spezielle Flüge zur Vermessung oder Fotoflüge für Luftbildaufnahmen an. In Zusammenarbeit mit dem Fallschirmsportclub Dresden und dem Cottbuser Fallschirmsportclub setzen wir am Flugplatz Bautzen und Neuhausen Fallschirmspringer ab.
Schauen Sie sich in Ruhe bei uns um und wenn Sie Fragen haben oder weitere Informationen benötigen, scheuen Sie sich nicht Kontakt mit uns aufzunehmen.

Gutscheine für Rundflüge und Tandemsprünge können Sie ganz leicht auch online in unserem Shop erwerben.

Terminkalender

Letzter Monat Mai 2019 Nächster Monat
Mo Di Mi Do Fr Sa So
week 18 1 2 3 4 5
week 19 6 7 8 9 10 11 12
week 20 13 14 15 16 17 18 19
week 21 20 21 22 23 24 25 26
week 22 27 28 29 30 31

Flugwetterinfo

[Quelle: ADDS]
METAR
EDDC 191820Z 07005KT 040V110 9999 FEW050CB 21/10 Q1003 NOSIG =
EDDC 191700Z 1918/2018 05004KT CAVOK TEMPO 2010/2016 07015G25KT TSRA BKN040CB PROB30 TEMPO 2011/2016 07020G35KT 2500 TSRAGS BKN008 BKN020CB BECMG 2015/2018 15005KT
TAF
EDDC 191700Z 1918/2018 05004KT CAVOK TEMPO 2010/2016 07015G25KT TSRA BKN040CB PROB30 TEMPO 2011/2016 07020G35KT 2500 TSRAGS BKN008 BKN020CB BECMG 2015/2018 15005KT =
SR / SS: 03:05 / 18:50 UTC (EDAB Flugplatz Bautzen 2019-05-19)

Öffnungszeiten

des Flugplatzes Bautzen erfahren Sie hier:

flugplatz bautzen logo
Flugservice Bautzen GmbH, Kornmarkt 34, 02625 Bautzen  Telefon: +49 (3591) 211105, Telefax: +49 (3591) 274512, E-Mail:  flugservice(at)fsbautzen.de